Lloydminster Airport
CYLL : now visible

Airfield :











YOU CAN JOIN US ON...

 
LOGIN :

Register | Disclaimer

   EN    FR    IT 

 









Legend :    VFR   Marginal VFR   IFR   Intensive IFR   Very Intensive IFR
Visi :
Ceiling :
>= 8 km
>= 3000ft
5 to 8 km
1000 to 3000 ft
1500m to 5 km
500 to 1000 ft
800 to 1500m
200 to 500 ft
< 800m
< 200 ft
Symbols :   Thunderstorms  Fog  Heavy snow  Heavy precipitations  Wind > 20 kt







- Airport Elevation : 2193 ft
- IATA code : YLL


CYLL - Lloydminster

CURRENT METAR :
  • 250122Z 29005KT 8SM FEW029 SCT041 BKN060 OVC120 13/11 A2967 RMK SC1SC2SC3AC2 SLP060 DENSITY ALT 2800FT

EXPIRED METARs :
  • 250100Z CCA VRB05KT 5SM -TSRA FEW018 SCT027CB OVC041 12/11 A2968 RMK SC2CB2SC4 OCNL LTGIC SLP063 DENSITY ALT 2600FT
  • 250054Z VRB02KT 50SM -TSRA FEW018 SCT027CB OVC044 12/10 A2968 RMK SC2CB2SC4 SLP063 DENSITY ALT 2600FT
  • 250032Z VRB09G22KT 6SM -RA BKN015 OVC050 13/09 A2967 RMK SC5SC3 SLP061 DENSITY ALT 2800FT
  • 250000Z 26004KT 240V360 15SM SCT015 BKN060 BKN070 15/12 A2967 RMK SC3SC2AC2 /R11/ SLP057 DENSITY ALT 3000FT
  • 242356Z 34004KT 15SM SCT015 BKN060 BKN070 15/11 A2966 RMK SC3SC2AC2 SLP057 DENSITY ALT 3000FT
  • 242327Z 32005KT 280V360 15SM -RA SCT047 BKN085 15/12 A2966 RMK SC3AC4 SLP056 DENSITY ALT 3100FT
  • 242312Z 33004KT 12SM FEW020 BKN065 BKN120 BKN260 14/13 A2966 RMK SC2SC4AC1CI1 AC TR CI TR SLP057 DENSITY ALT 2900FT
  • 242300Z 33007KT 10SM -RA SCT020 BKN040 13/11 A2967 RMK SC3SC4 SLP059 DENSITY ALT 2800FT

TAF AMD TAF CYLL
Valid from the 25 at 01:00 until the 25 at 12:00 UTC


250110Z 2501/2512 VRB03KT P6SM SCT020 BKN030
TEMPO 2501/2502 4SM -TSRA BR BKN020CB
FM250200 33007KT P6SM SCT020 BKN040
TEMPO 2502/2512 P6SM -SHRA SCT008 BKN020 OVC040
PROB30 2506/2512 BKN008 RMK NXT FCST BY 250600Z
CZEG FIR / North America



MET'MAP, your aeronautical weather chart ! - Copyright ORBIFLY December 2007 - Disclaimer

ORBIFLY MET'MAP TEAM :

Programming & Development : Alexandra Zaïnal
Concept & Development : Baudouin d'Aumeries
Co-Development & Prog : Marc-Olivier Méhu
Technical & hardware support : Manuel Goepfert

Contact : metmap@orbifly.com




SOURCES & CREDITS :

   NOAA       Earth
Advisory